Time;durP1;ratioP1;P1;durP2;ratioP2;P2;SDS_P1;SDS_P2;PMS_P1;PMS_P2;Temp;Humidity;BMP_temperature;BMP_pressure;BME280_temperature;BME280_humidity;BME280_pressure;Samples;Min_cycle;Max_cycle;Signal;HPM_P1;HPM_P2
2024/02/06 00:02:00;;;;;;;7.10;2.20;;;;;;;;;;4977679;28;20183;-81
2024/02/06 00:05:05;;;;;;;10.03;2.67;;;;;;;;;;4977330;28;20183;-81
2024/02/06 00:08:09;;;;;;;7.53;2.13;;;;;;;;;;4979343;28;20699;-81
2024/02/06 00:11:14;;;;;;;6.03;1.90;;;;;;;;;;4980822;28;20187;-81
2024/02/06 00:14:18;;;;;;;9.13;2.30;;;;;;;;;;4979596;28;20182;-81
2024/02/06 00:17:22;;;;;;;8.50;2.23;;;;;;;;;;4979639;28;20183;-81
2024/02/06 00:20:27;;;;;;;5.23;2.20;;;;;;;;;;4977268;28;20606;-81
2024/02/06 00:23:32;;;;;;;5.00;2.70;;;;;;;;;;4977200;28;20187;-81
2024/02/06 00:26:37;;;;;;;8.53;2.43;;;;;;;;;;4978170;28;20175;-80
2024/02/06 00:29:41;;;;;;;8.47;1.90;;;;;;;;;;4977410;28;20182;-80
2024/02/06 00:32:45;;;;;;;6.87;2.03;;;;;;;;;;4977118;28;20210;-81
2024/02/06 00:35:49;;;;;;;5.37;2.00;;;;;;;;;;4976934;28;20198;-80
2024/02/06 00:38:53;;;;;;;7.73;2.13;;;;;;;;;;4965624;28;20226;-81
2024/02/06 00:41:57;;;;;;;5.83;1.80;;;;;;;;;;4977526;28;20183;-81
2024/02/06 00:45:02;;;;;;;8.10;2.03;;;;;;;;;;4978444;28;20179;-81
2024/02/06 00:48:08;;;;;;;8.40;2.70;;;;;;;;;;4977991;28;20223;-84
2024/02/06 00:51:12;;;;;;;6.10;1.90;;;;;;;;;;4976874;28;20186;-84
2024/02/06 00:54:16;;;;;;;5.97;2.30;;;;;;;;;;4975631;28;20183;-84
2024/02/06 00:57:21;;;;;;;9.57;2.10;;;;;;;;;;4975935;28;20171;-84
2024/02/06 01:00:26;;;;;;;5.13;2.63;;;;;;;;;;4975165;28;20191;-84
2024/02/06 01:03:30;;;;;;;7.30;2.43;;;;;;;;;;4964451;28;20628;-84
2024/02/06 01:06:34;;;;;;;9.30;2.20;;;;;;;;;;4975249;28;20194;-84
2024/02/06 01:09:38;;;;;;;4.03;1.83;;;;;;;;;;4978124;28;20539;-84
2024/02/06 01:12:42;;;;;;;5.43;2.00;;;;;;;;;;4977641;28;20187;-84
2024/02/06 01:15:46;;;;;;;11.03;2.50;;;;;;;;;;4987700;28;20211;-84
2024/02/06 01:18:50;;;;;;;10.83;2.93;;;;;;;;;;4964835;28;20222;-84
2024/02/06 01:21:55;;;;;;;9.97;2.33;;;;;;;;;;4975974;28;20187;-84
2024/02/06 01:24:59;;;;;;;7.43;2.47;;;;;;;;;;4964788;28;20187;-84
2024/02/06 01:28:03;;;;;;;8.27;2.40;;;;;;;;;;4953166;28;20222;-84
2024/02/06 01:31:10;;;;;;;5.93;2.33;;;;;;;;;;4975909;28;20211;-84
2024/02/06 01:34:14;;;;;;;6.00;2.50;;;;;;;;;;4975939;28;20179;-84
2024/02/06 01:37:19;;;;;;;5.33;2.30;;;;;;;;;;4974932;28;20184;-84
2024/02/06 01:40:23;;;;;;;6.90;2.50;;;;;;;;;;4987435;28;20191;-84
2024/02/06 01:43:28;;;;;;;5.30;2.23;;;;;;;;;;4978411;28;20183;-84
2024/02/06 01:46:33;;;;;;;6.10;2.30;;;;;;;;;;4976873;28;20183;-84
2024/02/06 01:49:37;;;;;;;7.23;2.23;;;;;;;;;;4977151;28;20179;-84
2024/02/06 01:52:41;;;;;;;10.37;3.00;;;;;;;;;;4977636;28;20186;-84
2024/02/06 01:55:48;;;;;;;4.57;1.87;;;;;;;;;;4976871;28;20679;-84
2024/02/06 01:58:53;;;;;;;6.60;2.17;;;;;;;;;;4977622;28;20218;-84
2024/02/06 02:01:57;;;;;;;8.37;2.33;;;;;;;;;;4976930;28;20183;-84
2024/02/06 02:05:02;;;;;;;8.10;2.30;;;;;;;;;;4978578;28;20555;-83
2024/02/06 02:08:06;;;;;;;5.97;2.57;;;;;;;;;;4977432;28;20214;-84
2024/02/06 02:11:10;;;;;;;5.07;2.50;;;;;;;;;;4977953;28;20187;-83
2024/02/06 02:14:14;;;;;;;8.67;2.50;;;;;;;;;;4977061;28;20191;-84
2024/02/06 02:17:18;;;;;;;6.83;2.43;;;;;;;;;;4965588;28;20632;-84
2024/02/06 02:20:23;;;;;;;10.47;2.30;;;;;;;;;;4976127;28;20191;-84
2024/02/06 02:23:27;;;;;;;7.07;2.80;;;;;;;;;;4987312;28;20230;-86
2024/02/06 02:26:34;;;;;;;7.50;2.30;;;;;;;;;;4977429;28;20176;-84
2024/02/06 02:29:40;;;;;;;6.63;2.73;;;;;;;;;;4977329;28;20191;-84
2024/02/06 02:32:44;;;;;;;6.83;3.03;;;;;;;;;;4977248;28;20211;-84
2024/02/06 02:35:50;;;;;;;6.77;2.90;;;;;;;;;;4976956;28;20656;-84
2024/02/06 02:38:55;;;;;;;4.47;2.37;;;;;;;;;;4976349;28;20219;-84
2024/02/06 02:42:01;;;;;;;6.43;2.63;;;;;;;;;;4977783;28;20183;-84
2024/02/06 02:45:06;;;;;;;6.23;3.07;;;;;;;;;;4976215;28;20183;-84
2024/02/06 02:48:10;;;;;;;9.50;2.83;;;;;;;;;;4975986;28;20222;-84
2024/02/06 02:51:14;;;;;;;8.37;3.17;;;;;;;;;;4964874;28;20191;-87
2024/02/06 02:54:19;;;;;;;10.97;3.17;;;;;;;;;;4976694;28;20183;-86
2024/02/06 02:57:24;;;;;;;7.20;3.70;;;;;;;;;;4976646;28;20183;-84
2024/02/06 03:00:29;;;;;;;8.30;2.87;;;;;;;;;;4976153;28;20187;-84
2024/02/06 03:03:33;;;;;;;5.50;3.10;;;;;;;;;;4976675;28;20632;-84
2024/02/06 03:06:37;;;;;;;5.87;2.70;;;;;;;;;;4976100;28;20179;-84
2024/02/06 03:09:42;;;;;;;6.90;2.93;;;;;;;;;;4964753;28;20636;-86
2024/02/06 03:12:46;;;;;;;10.70;3.07;;;;;;;;;;4975657;28;20620;-86
2024/02/06 03:15:50;;;;;;;9.47;3.23;;;;;;;;;;4976330;28;20211;-85
2024/02/06 03:18:54;;;;;;;14.43;4.47;;;;;;;;;;4977012;28;20222;-84
2024/02/06 03:21:58;;;;;;;12.03;4.00;;;;;;;;;;4965071;28;20186;-84
2024/02/06 03:25:04;;;;;;;16.73;5.00;;;;;;;;;;4976145;28;20187;-84
2024/02/06 03:28:08;;;;;;;13.70;6.00;;;;;;;;;;4975647;28;20215;-84
2024/02/06 03:31:12;;;;;;;9.93;5.43;;;;;;;;;;4975503;28;20206;-84
2024/02/06 03:34:16;;;;;;;12.97;5.83;;;;;;;;;;4976755;28;20183;-85
2024/02/06 03:37:21;;;;;;;13.33;5.23;;;;;;;;;;4976622;28;20215;-84
2024/02/06 03:40:25;;;;;;;9.23;5.43;;;;;;;;;;4975095;28;20186;-84
2024/02/06 03:43:30;;;;;;;10.23;5.40;;;;;;;;;;4973564;28;20187;-84
2024/02/06 03:46:34;;;;;;;13.83;5.97;;;;;;;;;;4962853;28;20285;-84
2024/02/06 03:49:38;;;;;;;14.73;5.40;;;;;;;;;;4974400;28;20179;-84
2024/02/06 03:52:42;;;;;;;14.77;5.93;;;;;;;;;;4985425;28;20179;-85
2024/02/06 03:55:47;;;;;;;14.70;6.03;;;;;;;;;;4975598;28;20210;-84
2024/02/06 03:58:51;;;;;;;11.90;5.50;;;;;;;;;;4973800;28;20215;-84
2024/02/06 04:01:55;;;;;;;15.87;5.80;;;;;;;;;;4963391;28;20640;-84
2024/02/06 04:04:59;;;;;;;12.73;6.23;;;;;;;;;;4964351;28;20191;-84
2024/02/06 04:08:04;;;;;;;11.10;5.33;;;;;;;;;;4974183;28;20215;-85
2024/02/06 04:11:12;;;;;;;12.37;5.07;;;;;;;;;;4974206;28;20636;-84
2024/02/06 04:14:16;;;;;;;12.27;5.67;;;;;;;;;;4975722;28;20183;-85
2024/02/06 04:17:21;;;;;;;15.00;6.10;;;;;;;;;;4975427;28;20211;-84
2024/02/06 04:20:25;;;;;;;11.70;5.07;;;;;;;;;;4974441;28;20191;-83
2024/02/06 04:23:29;;;;;;;12.40;5.77;;;;;;;;;;4973576;28;20179;-85
2024/02/06 04:26:35;;;;;;;10.53;5.07;;;;;;;;;;4973538;28;20183;-84
2024/02/06 04:29:39;;;;;;;13.60;5.03;;;;;;;;;;4974464;28;20183;-84
2024/02/06 04:32:44;;;;;;;11.43;4.80;;;;;;;;;;4975768;28;20214;-84
2024/02/06 04:35:48;;;;;;;9.30;5.80;;;;;;;;;;4965318;28;20183;-85
2024/02/06 04:38:52;;;;;;;12.37;5.53;;;;;;;;;;4976310;28;20223;-84
2024/02/06 04:41:57;;;;;;;7.23;4.80;;;;;;;;;;4974086;28;20187;-84
2024/02/06 04:45:02;;;;;;;7.80;5.00;;;;;;;;;;4973905;28;20179;-84
2024/02/06 04:48:06;;;;;;;9.83;5.67;;;;;;;;;;4985334;28;20575;-84
2024/02/06 04:51:10;;;;;;;13.57;6.13;;;;;;;;;;4974559;28;20183;-85
2024/02/06 04:54:14;;;;;;;10.33;5.47;;;;;;;;;;4985558;28;20525;-85
2024/02/06 04:57:18;;;;;;;13.57;7.40;;;;;;;;;;4973530;28;20214;-84
2024/02/06 05:00:22;;;;;;;15.90;7.67;;;;;;;;;;4974126;28;20632;-84
2024/02/06 05:03:27;;;;;;;10.53;7.27;;;;;;;;;;4962966;28;20179;-84
2024/02/06 05:06:31;;;;;;;11.40;7.57;;;;;;;;;;4974746;28;20175;-84
2024/02/06 05:09:35;;;;;;;13.10;7.03;;;;;;;;;;4984955;28;20183;-84
2024/02/06 05:12:39;;;;;;;12.77;7.70;;;;;;;;;;4963150;28;20552;-84
2024/02/06 05:15:44;;;;;;;14.93;8.17;;;;;;;;;;4965187;28;20217;-84
2024/02/06 05:18:48;;;;;;;14.00;7.97;;;;;;;;;;4978260;28;20219;-85
2024/02/06 05:21:52;;;;;;;14.97;8.00;;;;;;;;;;4980207;28;20190;-84
2024/02/06 05:24:56;;;;;;;10.90;7.80;;;;;;;;;;4978612;28;20191;-85
2024/02/06 05:28:01;;;;;;;12.13;8.00;;;;;;;;;;4978673;28;20211;-84
2024/02/06 05:31:05;;;;;;;10.50;7.40;;;;;;;;;;4977859;28;20215;-84
2024/02/06 05:34:09;;;;;;;11.50;7.27;;;;;;;;;;4978214;28;20179;-85
2024/02/06 05:37:14;;;;;;;13.27;8.00;;;;;;;;;;4977352;28;20210;-83
2024/02/06 05:40:18;;;;;;;13.20;8.17;;;;;;;;;;4967352;28;20183;-84
2024/02/06 05:43:23;;;;;;;13.70;8.30;;;;;;;;;;4966187;28;20636;-84
2024/02/06 05:46:26;;;;;;;14.10;9.20;;;;;;;;;;4975598;28;20539;-84
2024/02/06 05:49:32;;;;;;;16.40;8.80;;;;;;;;;;4975322;28;20525;-85
2024/02/06 05:52:36;;;;;;;12.40;8.50;;;;;;;;;;4975131;28;20191;-84
2024/02/06 05:55:41;;;;;;;13.30;9.70;;;;;;;;;;4976745;28;21067;-85
2024/02/06 05:58:45;;;;;;;14.57;9.17;;;;;;;;;;4976394;28;20211;-84
2024/02/06 06:01:49;;;;;;;14.47;9.00;;;;;;;;;;4976212;28;20542;-84
2024/02/06 06:04:54;;;;;;;19.50;9.70;;;;;;;;;;4975705;28;20183;-84
2024/02/06 06:07:59;;;;;;;18.27;9.50;;;;;;;;;;4975937;28;20618;-84
2024/02/06 06:11:03;;;;;;;19.83;8.83;;;;;;;;;;4975514;28;20179;-84
2024/02/06 06:14:07;;;;;;;14.53;8.97;;;;;;;;;;4965056;28;20554;-83
2024/02/06 06:17:12;;;;;;;22.80;9.23;;;;;;;;;;4974635;28;20211;-85
2024/02/06 06:20:17;;;;;;;14.33;8.80;;;;;;;;;;4975068;28;20547;-84
2024/02/06 06:23:21;;;;;;;17.83;9.93;;;;;;;;;;4964532;28;20546;-86
2024/02/06 06:26:25;;;;;;;12.53;9.30;;;;;;;;;;4974806;28;20542;-86
2024/02/06 06:29:29;;;;;;;13.00;9.53;;;;;;;;;;4974301;28;20968;-86
2024/02/06 06:32:34;;;;;;;15.00;9.80;;;;;;;;;;4974458;28;20625;-86
2024/02/06 06:35:38;;;;;;;18.70;9.87;;;;;;;;;;4975271;28;20886;-86
2024/02/06 06:38:42;;;;;;;15.60;8.97;;;;;;;;;;4974382;28;20606;-86
2024/02/06 06:41:47;;;;;;;15.47;9.00;;;;;;;;;;4975025;28;21111;-86
2024/02/06 06:44:51;;;;;;;17.50;9.13;;;;;;;;;;4975167;28;20550;-86
2024/02/06 06:47:56;;;;;;;14.03;8.97;;;;;;;;;;4974881;28;20618;-85
2024/02/06 06:51:01;;;;;;;13.37;8.97;;;;;;;;;;4974061;28;20551;-87
2024/02/06 06:54:05;;;;;;;18.40;10.50;;;;;;;;;;4975793;28;20893;-87
2024/02/06 06:57:09;;;;;;;14.73;8.97;;;;;;;;;;4973985;28;20952;-87
2024/02/06 07:00:14;;;;;;;27.13;17.20;;;;;;;;;;4963822;28;20551;-86
2024/02/06 07:03:18;;;;;;;15.50;9.93;;;;;;;;;;4975138;28;20543;-87
2024/02/06 07:06:23;;;;;;;23.43;13.23;;;;;;;;;;4975247;28;20555;-87
2024/02/06 07:09:27;;;;;;;32.67;19.67;;;;;;;;;;4973655;28;20621;-86
2024/02/06 07:12:32;;;;;;;19.07;10.83;;;;;;;;;;4974618;28;21071;-86
2024/02/06 07:15:35;;;;;;;16.30;9.00;;;;;;;;;;4962544;28;20547;-86
2024/02/06 07:18:39;;;;;;;22.67;11.37;;;;;;;;;;4973444;28;20654;-86
2024/02/06 07:21:55;;;;;;;51.97;24.00;;;;;;;;;;4962073;28;20555;-87
2024/02/06 07:24:59;;;;;;;22.07;14.07;;;;;;;;;;4973569;28;20563;-87
2024/02/06 07:28:05;;;;;;;20.87;12.10;;;;;;;;;;4973950;28;20621;-87
2024/02/06 07:31:09;;;;;;;16.17;10.37;;;;;;;;;;4962157;28;20613;-87
2024/02/06 07:34:14;;;;;;;15.27;8.90;;;;;;;;;;4973615;28;20175;-86
2024/02/06 07:37:18;;;;;;;13.10;7.90;;;;;;;;;;4972912;28;20676;-87
2024/02/06 07:40:23;;;;;;;16.23;8.10;;;;;;;;;;4973371;28;20183;-85
2024/02/06 07:43:28;;;;;;;16.40;9.00;;;;;;;;;;4974466;28;20190;-86
2024/02/06 07:46:32;;;;;;;14.03;8.37;;;;;;;;;;4962690;28;20183;-86
2024/02/06 07:49:37;;;;;;;15.80;8.30;;;;;;;;;;4973111;28;20183;-85
2024/02/06 07:52:42;;;;;;;15.23;7.77;;;;;;;;;;4972449;28;20183;-86
2024/02/06 07:55:46;;;;;;;13.77;7.50;;;;;;;;;;4972982;28;20183;-85
2024/02/06 07:58:50;;;;;;;8.93;6.50;;;;;;;;;;4972437;28;20230;-86
2024/02/06 08:01:54;;;;;;;15.73;10.10;;;;;;;;;;4973309;28;20187;-86
2024/02/06 08:04:58;;;;;;;15.60;8.40;;;;;;;;;;4972951;28;20230;-86
2024/02/06 08:08:04;;;;;;;12.87;7.47;;;;;;;;;;4973613;28;20214;-86
2024/02/06 08:11:08;;;;;;;12.37;6.73;;;;;;;;;;4972754;28;20194;-88
2024/02/06 08:14:13;;;;;;;12.10;6.87;;;;;;;;;;4972236;28;20183;-89
2024/02/06 08:17:18;;;;;;;10.27;6.43;;;;;;;;;;4974329;28;20211;-88
2024/02/06 08:20:22;;;;;;;10.10;5.43;;;;;;;;;;4973103;28;20519;-86
2024/02/06 08:23:26;;;;;;;11.43;6.23;;;;;;;;;;4961866;28;20183;-87
2024/02/06 08:26:31;;;;;;;10.87;6.17;;;;;;;;;;4973125;28;20183;-88
2024/02/06 08:29:35;;;;;;;10.50;6.20;;;;;;;;;;4962281;28;20179;-88
2024/02/06 08:32:39;;;;;;;8.87;5.13;;;;;;;;;;4961155;28;20207;-88
2024/02/06 08:35:43;;;;;;;7.67;5.60;;;;;;;;;;4973134;28;20179;-85
2024/02/06 08:38:47;;;;;;;9.57;5.27;;;;;;;;;;4973000;28;20238;-86
2024/02/06 08:41:51;;;;;;;11.80;5.03;;;;;;;;;;4973583;28;20619;-87
2024/02/06 08:44:55;;;;;;;7.77;4.63;;;;;;;;;;4973659;28;20187;-87
2024/02/06 08:47:59;;;;;;;8.73;4.93;;;;;;;;;;4962670;28;20218;-87
2024/02/06 08:51:03;;;;;;;8.40;5.03;;;;;;;;;;4965004;28;20191;-87
2024/02/06 08:54:07;;;;;;;8.50;4.93;;;;;;;;;;4976793;28;20552;-87
2024/02/06 08:57:11;;;;;;;7.47;5.60;;;;;;;;;;4976923;28;20575;-84
2024/02/06 09:00:16;;;;;;;7.40;4.40;;;;;;;;;;4988143;28;20186;-85
2024/02/06 09:03:20;;;;;;;7.47;4.17;;;;;;;;;;4976691;28;20183;-85
2024/02/06 09:06:25;;;;;;;8.30;4.67;;;;;;;;;;4965599;28;20208;-84
2024/02/06 09:09:29;;;;;;;7.80;5.17;;;;;;;;;;4965239;28;20214;-84
2024/02/06 09:12:33;;;;;;;5.70;4.17;;;;;;;;;;4975887;28;20187;-85
2024/02/06 09:15:37;;;;;;;6.87;4.30;;;;;;;;;;4954313;28;20183;-85
2024/02/06 09:18:42;;;;;;;9.90;4.50;;;;;;;;;;4976739;28;20683;-85
2024/02/06 09:21:46;;;;;;;6.43;4.50;;;;;;;;;;4964883;28;20183;-85
2024/02/06 09:24:50;;;;;;;9.40;4.47;;;;;;;;;;4976008;28;20179;-85
2024/02/06 09:27:54;;;;;;;8.53;4.00;;;;;;;;;;4976185;28;20218;-86
2024/02/06 09:30:58;;;;;;;9.00;4.10;;;;;;;;;;4976497;28;20206;-85
2024/02/06 09:34:02;;;;;;;6.20;3.90;;;;;;;;;;4976777;28;20175;-85
2024/02/06 09:37:07;;;;;;;10.23;4.07;;;;;;;;;;4964743;28;20183;-85
2024/02/06 09:40:11;;;;;;;6.60;3.90;;;;;;;;;;4987153;28;20183;-86
2024/02/06 09:43:15;;;;;;;5.37;3.80;;;;;;;;;;4953185;28;20187;-85
2024/02/06 09:46:19;;;;;;;5.20;3.37;;;;;;;;;;4976457;28;20190;-85
2024/02/06 09:49:24;;;;;;;5.27;3.33;;;;;;;;;;4976607;28;20687;-85
2024/02/06 09:52:30;;;;;;;4.83;3.10;;;;;;;;;;4975535;28;20186;-85
2024/02/06 09:55:36;;;;;;;7.40;2.70;;;;;;;;;;4965139;28;20187;-85
2024/02/06 09:58:41;;;;;;;5.87;2.73;;;;;;;;;;4980834;28;20226;-86
2024/02/06 10:01:46;;;;;;;5.90;2.77;;;;;;;;;;4997350;28;20179;-86
2024/02/06 10:04:53;;;;;;;4.50;3.00;;;;;;;;;;4982676;28;20183;-86
2024/02/06 10:07:57;;;;;;;4.53;2.30;;;;;;;;;;4980064;28;20215;-84
2024/02/06 10:11:03;;;;;;;4.57;2.57;;;;;;;;;;4997704;28;20171;-85
2024/02/06 10:14:07;;;;;;;7.43;3.00;;;;;;;;;;4995167;28;20183;-86
2024/02/06 10:17:14;;;;;;;3.07;2.27;;;;;;;;;;4972028;28;20203;-86
2024/02/06 10:20:18;;;;;;;3.97;2.67;;;;;;;;;;4982850;28;20187;-86
2024/02/06 10:23:23;;;;;;;3.27;2.03;;;;;;;;;;4971619;28;20187;-86
2024/02/06 10:26:27;;;;;;;7.53;3.60;;;;;;;;;;4972111;28;20179;-86
2024/02/06 10:29:33;;;;;;;4.40;2.63;;;;;;;;;;4983201;28;20179;-85
2024/02/06 10:32:38;;;;;;;5.47;2.40;;;;;;;;;;4983332;28;20206;-84
2024/02/06 10:35:43;;;;;;;3.73;2.20;;;;;;;;;;4986180;28;20190;-85
2024/02/06 10:38:55;;;;;;;3.47;2.17;;;;;;;;;;4983105;28;20231;-85
2024/02/06 10:42:01;;;;;;;3.43;1.87;;;;;;;;;;4983375;28;20183;-84
2024/02/06 10:45:07;;;;;;;8.13;4.83;;;;;;;;;;4983859;28;20182;-84
2024/02/06 10:48:15;;;;;;;6.40;4.10;;;;;;;;;;4983035;28;20214;-84
2024/02/06 10:51:23;;;;;;;3.90;2.27;;;;;;;;;;4983113;28;20186;-84
2024/02/06 10:54:27;;;;;;;3.50;2.13;;;;;;;;;;4982459;28;20183;-84
2024/02/06 10:57:33;;;;;;;4.07;1.80;;;;;;;;;;4994989;28;20226;-84
2024/02/06 11:00:42;;;;;;;2.80;1.60;;;;;;;;;;4982336;28;20187;-86
2024/02/06 11:04:00;;;;;;;3.87;1.70;;;;;;;;;;4982224;28;20187;-86
2024/02/06 11:07:06;;;;;;;3.23;1.90;;;;;;;;;;4993044;28;20548;-86
2024/02/06 11:10:21;;;;;;;3.10;1.73;;;;;;;;;;4982090;28;20183;-86
2024/02/06 11:13:27;;;;;;;2.70;1.80;;;;;;;;;;4980253;28;20636;-85
2024/02/06 11:16:34;;;;;;;5.67;1.77;;;;;;;;;;4980230;28;20183;-84
2024/02/06 11:19:58;;;;;;;5.50;1.80;;;;;;;;;;4979258;28;20679;-85
2024/02/06 11:23:03;;;;;;;5.27;1.83;;;;;;;;;;4980050;28;20176;-85
2024/02/06 11:26:08;;;;;;;4.13;1.50;;;;;;;;;;4981562;28;20183;-86
2024/02/06 11:29:13;;;;;;;5.73;1.80;;;;;;;;;;4979129;28;20214;-86
2024/02/06 11:32:18;;;;;;;3.37;1.40;;;;;;;;;;4979838;28;20211;-85
2024/02/06 11:35:27;;;;;;;2.70;1.60;;;;;;;;;;4965685;28;20182;-86
2024/02/06 11:38:32;;;;;;;4.57;1.67;;;;;;;;;;4977022;28;20227;-86
2024/02/06 11:41:37;;;;;;;3.67;1.20;;;;;;;;;;4976046;28;20187;-86
2024/02/06 11:44:41;;;;;;;3.87;1.50;;;;;;;;;;4965417;28;20179;-86
2024/02/06 11:47:56;;;;;;;4.93;1.70;;;;;;;;;;4965595;28;20226;-87
2024/02/06 11:51:00;;;;;;;5.70;1.70;;;;;;;;;;4987253;28;20188;-86
2024/02/06 11:54:12;;;;;;;7.17;4.20;;;;;;;;;;4966001;28;20187;-84
2024/02/06 11:57:16;;;;;;;14.43;8.43;;;;;;;;;;4977038;28;20179;-87
2024/02/06 12:00:21;;;;;;;20.00;10.47;;;;;;;;;;4978358;28;20175;-84
2024/02/06 12:03:24;;;;;;;3.57;2.37;;;;;;;;;;4966597;28;20185;-81
2024/02/06 12:06:29;;;;;;;2.50;1.40;;;;;;;;;;4976297;28;20183;-86
2024/02/06 12:09:40;;;;;;;3.13;1.20;;;;;;;;;;4976052;28;20179;-86
2024/02/06 12:12:47;;;;;;;3.10;1.30;;;;;;;;;;4965349;28;20175;-85
2024/02/06 12:15:51;;;;;;;4.50;1.27;;;;;;;;;;4976955;28;20186;-85
2024/02/06 12:18:55;;;;;;;5.77;1.13;;;;;;;;;;4964536;28;20234;-85
2024/02/06 12:22:05;;;;;;;2.43;1.40;;;;;;;;;;4975937;28;20179;-85
2024/02/06 12:25:15;;;;;;;1.93;1.00;;;;;;;;;;4964648;28;20178;-86
2024/02/06 12:28:20;;;;;;;5.83;1.23;;;;;;;;;;4976692;28;20207;-85
2024/02/06 12:31:24;;;;;;;3.63;1.37;;;;;;;;;;4975139;28;20214;-86
2024/02/06 12:34:32;;;;;;;3.83;1.60;;;;;;;;;;4975044;28;20257;-85
2024/02/06 12:37:38;;;;;;;2.27;1.20;;;;;;;;;;4975602;28;20227;-84
2024/02/06 12:40:43;;;;;;;8.77;1.77;;;;;;;;;;4975146;28;20536;-84
2024/02/06 12:43:52;;;;;;;5.80;1.37;;;;;;;;;;4975200;28;20179;-85
2024/02/06 12:46:59;;;;;;;4.30;1.50;;;;;;;;;;4974498;28;20191;-85
2024/02/06 12:50:04;;;;;;;4.03;1.23;;;;;;;;;;4975592;28;20175;-81
2024/02/06 12:53:09;;;;;;;2.20;1.23;;;;;;;;;;4975011;28;20187;-81
2024/02/06 12:56:13;;;;;;;4.50;1.30;;;;;;;;;;4964912;28;20191;-81
2024/02/06 12:59:17;;;;;;;3.03;1.10;;;;;;;;;;4956790;29;20219;-82
2024/02/06 13:02:22;;;;;;;5.43;1.40;;;;;;;;;;4957884;29;20188;-82
2024/02/06 13:05:27;;;;;;;7.40;3.80;;;;;;;;;;4957646;29;20184;-82
2024/02/06 13:08:42;;;;;;;10.10;4.83;;;;;;;;;;4957533;29;20207;-82
2024/02/06 13:11:46;;;;;;;6.73;1.40;;;;;;;;;;4967289;28;20185;-82
2024/02/06 13:14:52;;;;;;;3.57;2.40;;;;;;;;;;4955856;29;20191;-82
2024/02/06 13:17:58;;;;;;;5.73;2.60;;;;;;;;;;4955657;29;20219;-82
2024/02/06 13:21:07;;;;;;;4.13;1.40;;;;;;;;;;4956067;29;20180;-82
2024/02/06 13:24:12;;;;;;;3.10;1.63;;;;;;;;;;4944339;29;20184;-83
2024/02/06 13:27:16;;;;;;;5.33;2.77;;;;;;;;;;4956292;29;20640;-82
2024/02/06 13:30:20;;;;;;;5.93;2.23;;;;;;;;;;4957105;29;20664;-82
2024/02/06 13:33:24;;;;;;;3.87;2.13;;;;;;;;;;4956354;29;20176;-82
2024/02/06 13:36:28;;;;;;;3.67;1.40;;;;;;;;;;4958271;29;20187;-82
2024/02/06 13:39:35;;;;;;;5.23;1.70;;;;;;;;;;4958405;29;20576;-82
2024/02/06 13:42:39;;;;;;;4.57;1.70;;;;;;;;;;4958770;29;20183;-82
2024/02/06 13:45:44;;;;;;;5.23;2.17;;;;;;;;;;4959922;29;20493;-82
2024/02/06 13:48:47;;;;;;;5.77;1.67;;;;;;;;;;4957294;29;20688;-82
2024/02/06 13:51:52;;;;;;;5.53;1.37;;;;;;;;;;4958190;29;20184;-82
2024/02/06 13:54:56;;;;;;;5.60;1.87;;;;;;;;;;4958815;29;20184;-82
2024/02/06 13:58:00;;;;;;;6.80;1.73;;;;;;;;;;4969551;28;20223;-81
2024/02/06 14:01:05;;;;;;;7.33;1.53;;;;;;;;;;4958771;29;20180;-82
2024/02/06 14:04:09;;;;;;;3.97;1.40;;;;;;;;;;4958618;29;20183;-85
2024/02/06 14:07:14;;;;;;;4.20;1.50;;;;;;;;;;4958126;29;20540;-85
2024/02/06 14:10:18;;;;;;;7.43;4.67;;;;;;;;;;4956901;29;20191;-85
2024/02/06 14:13:23;;;;;;;5.97;1.77;;;;;;;;;;4957346;29;20188;-85
2024/02/06 14:16:27;;;;;;;8.60;3.67;;;;;;;;;;4956569;29;20187;-86
2024/02/06 14:19:34;;;;;;;30.53;13.37;;;;;;;;;;4955631;29;20215;-85
2024/02/06 14:22:38;;;;;;;4.83;1.97;;;;;;;;;;4956385;29;20184;-85
2024/02/06 14:25:42;;;;;;;6.07;1.87;;;;;;;;;;4955386;29;20628;-86
2024/02/06 14:28:46;;;;;;;4.43;1.73;;;;;;;;;;4955406;29;20219;-87
2024/02/06 14:31:51;;;;;;;4.67;1.50;;;;;;;;;;4944608;29;20576;-85
2024/02/06 14:34:55;;;;;;;6.13;1.53;;;;;;;;;;4956911;29;20187;-85
2024/02/06 14:37:59;;;;;;;8.47;1.30;;;;;;;;;;4956486;29;20215;-84
2024/02/06 14:41:05;;;;;;;5.10;1.30;;;;;;;;;;4945403;29;20180;-84
2024/02/06 14:44:09;;;;;;;6.40;1.93;;;;;;;;;;4956558;29;20187;-86
2024/02/06 14:47:14;;;;;;;5.27;1.53;;;;;;;;;;4956051;29;20184;-85
2024/02/06 14:50:19;;;;;;;8.27;1.87;;;;;;;;;;4967588;28;20192;-86
2024/02/06 14:53:23;;;;;;;6.73;3.07;;;;;;;;;;4956172;29;20645;-85
2024/02/06 14:56:27;;;;;;;6.63;1.90;;;;;;;;;;4956840;29;20188;-85
2024/02/06 14:59:31;;;;;;;5.87;2.30;;;;;;;;;;4945184;29;20220;-86
2024/02/06 15:02:36;;;;;;;6.97;2.40;;;;;;;;;;4957243;29;20183;-85
2024/02/06 15:05:40;;;;;;;4.73;1.67;;;;;;;;;;4956836;29;20183;-85
2024/02/06 15:08:44;;;;;;;5.80;4.00;;;;;;;;;;4959133;29;20223;-85
2024/02/06 15:11:49;;;;;;;6.63;2.00;;;;;;;;;;4957887;29;20183;-85
2024/02/06 15:14:54;;;;;;;7.77;2.00;;;;;;;;;;4956669;29;20179;-85
2024/02/06 15:17:58;;;;;;;8.27;1.67;;;;;;;;;;4956598;29;20227;-85
2024/02/06 15:21:03;;;;;;;4.13;1.20;;;;;;;;;;4958378;29;20664;-82
2024/02/06 15:24:08;;;;;;;6.07;1.60;;;;;;;;;;4957851;29;20195;-82
2024/02/06 15:27:13;;;;;;;6.43;1.37;;;;;;;;;;4957089;29;20184;-82
2024/02/06 15:30:18;;;;;;;2.17;1.30;;;;;;;;;;4957104;29;20537;-82
2024/02/06 15:33:22;;;;;;;4.83;1.27;;;;;;;;;;4967829;28;20188;-82
2024/02/06 15:36:26;;;;;;;4.33;1.50;;;;;;;;;;4957067;29;20184;-82
2024/02/06 15:39:31;;;;;;;5.07;1.67;;;;;;;;;;4957089;29;20239;-82
2024/02/06 15:42:35;;;;;;;3.27;1.23;;;;;;;;;;4957379;29;20191;-82
2024/02/06 15:45:39;;;;;;;13.73;2.33;;;;;;;;;;4956503;29;20183;-82
2024/02/06 15:48:45;;;;;;;7.17;2.20;;;;;;;;;;4957802;29;20219;-82
2024/02/06 15:51:49;;;;;;;5.90;1.53;;;;;;;;;;4958661;29;20180;-82
2024/02/06 15:54:53;;;;;;;3.50;1.43;;;;;;;;;;4955057;29;20564;-82
2024/02/06 15:57:57;;;;;;;3.90;1.40;;;;;;;;;;4955126;29;20219;-83
2024/02/06 16:01:01;;;;;;;3.40;1.57;;;;;;;;;;4967034;28;20219;-84
2024/02/06 16:04:05;;;;;;;7.17;3.70;;;;;;;;;;4966232;28;20180;-83
2024/02/06 16:07:09;;;;;;;4.90;1.97;;;;;;;;;;4956702;29;20183;-83
2024/02/06 16:10:14;;;;;;;2.53;1.30;;;;;;;;;;4956524;29;20548;-83
2024/02/06 16:13:18;;;;;;;5.50;1.73;;;;;;;;;;4956535;29;20617;-84
2024/02/06 16:16:22;;;;;;;7.43;1.67;;;;;;;;;;4967116;28;20188;-82
2024/02/06 16:19:27;;;;;;;2.67;1.63;;;;;;;;;;4956163;29;20223;-82
2024/02/06 16:22:31;;;;;;;4.03;1.63;;;;;;;;;;4943987;29;20187;-83
2024/02/06 16:25:35;;;;;;;4.67;1.70;;;;;;;;;;4955146;29;20549;-82
2024/02/06 16:28:39;;;;;;;4.47;1.63;;;;;;;;;;4955844;29;20580;-82
2024/02/06 16:31:43;;;;;;;6.60;2.43;;;;;;;;;;4955082;29;20203;-82
2024/02/06 16:34:48;;;;;;;8.87;2.30;;;;;;;;;;4956771;29;20191;-83
2024/02/06 16:37:52;;;;;;;6.67;3.73;;;;;;;;;;4956012;29;20227;-83
2024/02/06 16:40:56;;;;;;;3.40;1.87;;;;;;;;;;4966366;28;20677;-82
2024/02/06 16:44:04;;;;;;;3.67;1.50;;;;;;;;;;4967375;28;20183;-84
2024/02/06 16:47:08;;;;;;;7.07;2.10;;;;;;;;;;4946276;29;20628;-83
2024/02/06 16:50:15;;;;;;;4.23;1.77;;;;;;;;;;4956446;29;20184;-83
2024/02/06 16:53:19;;;;;;;5.27;2.07;;;;;;;;;;4945348;29;20183;-83
2024/02/06 16:56:24;;;;;;;3.47;1.83;;;;;;;;;;4955204;29;20183;-83
2024/02/06 16:59:27;;;;;;;4.20;2.17;;;;;;;;;;4955910;29;20223;-82
2024/02/06 17:02:31;;;;;;;3.40;1.70;;;;;;;;;;4956396;29;20187;-82
2024/02/06 17:05:36;;;;;;;5.73;2.17;;;;;;;;;;4955148;29;20545;-83
2024/02/06 17:08:40;;;;;;;5.07;2.13;;;;;;;;;;4954933;28;20222;-82
2024/02/06 17:11:44;;;;;;;5.23;1.63;;;;;;;;;;4959949;29;20180;-82
2024/02/06 17:14:49;;;;;;;6.43;2.87;;;;;;;;;;4959307;29;20183;-83
2024/02/06 17:17:53;;;;;;;4.37;1.90;;;;;;;;;;4959338;29;20231;-83
2024/02/06 17:20:57;;;;;;;6.40;2.00;;;;;;;;;;4970240;28;20215;-82
2024/02/06 17:24:02;;;;;;;16.00;9.87;;;;;;;;;;4970144;28;20183;-82
2024/02/06 17:27:06;;;;;;;43.60;25.87;;;;;;;;;;4959569;29;20621;-83
2024/02/06 17:30:11;;;;;;;8.33;2.33;;;;;;;;;;4935760;29;20617;-83
2024/02/06 17:33:15;;;;;;;3.63;2.23;;;;;;;;;;4959010;29;20645;-83
2024/02/06 17:36:19;;;;;;;3.90;2.03;;;;;;;;;;4968921;28;20188;-83
2024/02/06 17:39:23;;;;;;;4.80;2.10;;;;;;;;;;4958944;29;20219;-82
2024/02/06 17:42:29;;;;;;;4.27;2.33;;;;;;;;;;4968683;28;20180;-82
2024/02/06 17:45:34;;;;;;;10.97;2.67;;;;;;;;;;4959141;29;20187;-82
2024/02/06 17:48:38;;;;;;;5.70;2.50;;;;;;;;;;4958373;29;20561;-82
2024/02/06 17:51:42;;;;;;;7.10;3.40;;;;;;;;;;4958864;29;20184;-82
2024/02/06 17:54:47;;;;;;;6.03;3.20;;;;;;;;;;4959083;29;20196;-82
2024/02/06 17:57:51;;;;;;;6.20;3.67;;;;;;;;;;4936271;29;20696;-82
2024/02/06 18:00:56;;;;;;;4.33;2.33;;;;;;;;;;4958076;29;20211;-82
2024/02/06 18:04:00;;;;;;;6.83;2.10;;;;;;;;;;4958001;29;20186;-82
2024/02/06 18:07:04;;;;;;;8.00;2.27;;;;;;;;;;4958342;29;20559;-83
2024/02/06 18:10:09;;;;;;;5.67;4.03;;;;;;;;;;4958121;29;20180;-81
2024/02/06 18:13:13;;;;;;;5.70;3.30;;;;;;;;;;4956747;29;20526;-82
2024/02/06 18:16:17;;;;;;;4.73;3.23;;;;;;;;;;4956948;29;20187;-81
2024/02/06 18:19:21;;;;;;;8.40;4.67;;;;;;;;;;4956764;29;20737;-81
2024/02/06 18:22:26;;;;;;;5.07;3.00;;;;;;;;;;4957150;29;20176;-81